SWA391 KPHX-KLAS
Flight info
| Callsign | SWA391 |
|---|---|
| Flight time | 0h 43m |
| Altitude | 28000 |
| Route | ZEPER2 RRSTA ELLDA RKSTR4 |
| Aircraft | B738/M-SDE2E3FGHIRWXY/LB1 |
Departure
| Time | 2026-05-07 19:54 |
|---|---|
| Airport | Phoenix Sky Harbor International Airport (KPHX) |
Arrival
| Time | 2026-05-07 20:38 |
|---|---|
| Airport | Harry Reid International Airport (KLAS) |
| Time | Latitude | Longitude | Altitude | Speed | Heading |
|---|---|---|---|---|---|
| 2026-05-07 19:00 | 33.43403 | -111.99493 | 1114 ft | 0 kts | 88° |
| 2026-05-07 19:46 | 33.43403 | -111.99494 | 1123 ft | 2 kts | 88° |
| 2026-05-07 19:46 | 33.43406 | -111.99520 | 1116 ft | 4 kts | 137° |
| 2026-05-07 19:46 | 33.43421 | -111.99528 | 1115 ft | 2 kts | 180° |
| 2026-05-07 19:47 | 33.43394 | -111.99529 | 1119 ft | 4 kts | 180° |
| 2026-05-07 19:47 | 33.43367 | -111.99529 | 1118 ft | 4 kts | 180° |
| 2026-05-07 19:47 | 33.43342 | -111.99529 | 1118 ft | 4 kts | 180° |
| 2026-05-07 19:47 | 33.43327 | -111.99530 | 1118 ft | 0 kts | 180° |
| 2026-05-07 19:51 | 33.43292 | -111.99505 | 1120 ft | 11 kts | 127° |
| 2026-05-07 19:51 | 33.43283 | -111.99401 | 1124 ft | 17 kts | 90° |
| 2026-05-07 19:52 | 33.43241 | -111.99346 | 1119 ft | 15 kts | 173° |
| 2026-05-07 19:52 | 33.43147 | -111.99345 | 1134 ft | 13 kts | 182° |
| 2026-05-07 19:52 | 33.43103 | -111.99372 | 1133 ft | 0 kts | 266° |
| 2026-05-07 19:53 | 33.43103 | -111.99373 | 1133 ft | 0 kts | 266° |
| 2026-05-07 19:53 | 33.43103 | -111.99382 | 1132 ft | 8 kts | 267° |
| 2026-05-07 19:54 | 33.43102 | -111.99593 | 1137 ft | 69 kts | 270° |
| 2026-05-07 19:54 | 33.43105 | -112.00531 | 1131 ft | 152 kts | 270° |
| 2026-05-07 19:54 | 33.43109 | -112.02021 | 1549 ft | 195 kts | 270° |
| 2026-05-07 19:54 | 33.43124 | -112.03736 | 2397 ft | 207 kts | 271° |
| 2026-05-07 19:55 | 33.43165 | -112.05520 | 3161 ft | 217 kts | 271° |
| 2026-05-07 19:55 | 33.43189 | -112.07286 | 4072 ft | 212 kts | 272° |
| 2026-05-07 19:55 | 33.43276 | -112.09083 | 4742 ft | 216 kts | 274° |
| 2026-05-07 19:55 | 33.43388 | -112.10956 | 5073 ft | 239 kts | 275° |
| 2026-05-07 19:56 | 33.43509 | -112.12994 | 5332 ft | 250 kts | 273° |
| 2026-05-07 19:56 | 33.43574 | -112.15055 | 6156 ft | 244 kts | 273° |
| 2026-05-07 19:56 | 33.43765 | -112.17069 | 6927 ft | 242 kts | 285° |
| 2026-05-07 19:56 | 33.44407 | -112.18987 | 7380 ft | 257 kts | 309° |
| 2026-05-07 19:57 | 33.45804 | -112.20021 | 8528 ft | 230 kts | 349° |
| 2026-05-07 19:57 | 33.47426 | -112.20307 | 9141 ft | 247 kts | 359° |
| 2026-05-07 19:57 | 33.49173 | -112.20047 | 8864 ft | 262 kts | 13° |
| 2026-05-07 19:57 | 33.50980 | -112.19629 | 8540 ft | 266 kts | 9° |
| 2026-05-07 19:58 | 33.52764 | -112.19386 | 8593 ft | 252 kts | 3° |
| 2026-05-07 19:58 | 33.54480 | -112.19482 | 8721 ft | 243 kts | 354° |
| 2026-05-07 19:58 | 33.56172 | -112.19705 | 8526 ft | 250 kts | 353° |
| 2026-05-07 19:58 | 33.56695 | -112.19803 | 8345 ft | 256 kts | 351° |
| 2026-05-07 19:59 | 33.57788 | -112.19999 | 8282 ft | 254 kts | 355° |
| 2026-05-07 20:00 | 33.59519 | -112.20464 | 8308 ft | 260 kts | 335° |
| 2026-05-07 20:00 | 33.61143 | -112.21574 | 8605 ft | 276 kts | 330° |
| 2026-05-07 20:00 | 33.62812 | -112.22780 | 9257 ft | 282 kts | 331° |
| 2026-05-07 20:00 | 33.64475 | -112.23975 | 10024 ft | 282 kts | 332° |
| 2026-05-07 20:01 | 33.66196 | -112.25197 | 10490 ft | 296 kts | 332° |
| 2026-05-07 20:01 | 33.68050 | -112.26496 | 10675 ft | 319 kts | 331° |
| 2026-05-07 20:01 | 33.70038 | -112.27879 | 10813 ft | 340 kts | 331° |
| 2026-05-07 20:01 | 33.72134 | -112.29332 | 11229 ft | 351 kts | 331° |
| 2026-05-07 20:02 | 33.74258 | -112.30802 | 11991 ft | 352 kts | 332° |
| 2026-05-07 20:02 | 33.76359 | -112.32252 | 12687 ft | 355 kts | 332° |
| 2026-05-07 20:02 | 33.78526 | -112.33745 | 13358 ft | 360 kts | 332° |
| 2026-05-07 20:02 | 33.80704 | -112.35243 | 14015 ft | 363 kts | 333° |
| 2026-05-07 20:03 | 33.82905 | -112.36757 | 14644 ft | 366 kts | 333° |
| 2026-05-07 20:03 | 33.85129 | -112.38287 | 15293 ft | 369 kts | 333° |
| 2026-05-07 20:03 | 33.87372 | -112.39832 | 15911 ft | 373 kts | 333° |
| 2026-05-07 20:03 | 33.89615 | -112.41375 | 16509 ft | 377 kts | 334° |
| 2026-05-07 20:04 | 33.91901 | -112.42948 | 17134 ft | 380 kts | 334° |
| 2026-05-07 20:04 | 33.94210 | -112.44539 | 17768 ft | 383 kts | 334° |
| 2026-05-07 20:04 | 33.96536 | -112.46143 | 18309 ft | 388 kts | 335° |
| 2026-05-07 20:04 | 33.98897 | -112.47769 | 18799 ft | 392 kts | 334° |
| 2026-05-07 20:05 | 34.01258 | -112.49446 | 19295 ft | 396 kts | 334° |
| 2026-05-07 20:05 | 34.03663 | -112.51117 | 19800 ft | 400 kts | 334° |
| 2026-05-07 20:05 | 34.06094 | -112.52784 | 20322 ft | 403 kts | 335° |
| 2026-05-07 20:05 | 34.08536 | -112.54457 | 20876 ft | 405 kts | 335° |
| 2026-05-07 20:06 | 34.10953 | -112.56143 | 21400 ft | 408 kts | 332° |
| 2026-05-07 20:06 | 34.13370 | -112.57925 | 22018 ft | 406 kts | 334° |
| 2026-05-07 20:06 | 34.15838 | -112.59620 | 22538 ft | 408 kts | 335° |
| 2026-05-07 20:06 | 34.18334 | -112.61306 | 22882 ft | 415 kts | 335° |
| 2026-05-07 20:07 | 34.20861 | -112.63018 | 23338 ft | 418 kts | 335° |
| 2026-05-07 20:07 | 34.23393 | -112.64752 | 23818 ft | 418 kts | 335° |
| 2026-05-07 20:07 | 34.25924 | -112.66499 | 24206 ft | 421 kts | 334° |
| 2026-05-07 20:07 | 34.28478 | -112.68271 | 24565 ft | 424 kts | 334° |
| 2026-05-07 20:08 | 34.31043 | -112.70057 | 24999 ft | 425 kts | 334° |
| 2026-05-07 20:08 | 34.33599 | -112.71842 | 25557 ft | 421 kts | 334° |
| 2026-05-07 20:08 | 34.36123 | -112.73606 | 26239 ft | 416 kts | 334° |
| 2026-05-07 20:08 | 34.38627 | -112.75355 | 26775 ft | 415 kts | 334° |
| 2026-05-07 20:09 | 34.41147 | -112.77097 | 26984 ft | 422 kts | 335° |
| 2026-05-07 20:09 | 34.43760 | -112.78777 | 26705 ft | 438 kts | 337° |
| 2026-05-07 20:09 | 34.46590 | -112.80313 | 26402 ft | 453 kts | 342° |
| 2026-05-07 20:10 | 34.52646 | -112.82530 | 27117 ft | 447 kts | 351° |
| 2026-05-07 20:10 | 34.55653 | -112.83120 | 27880 ft | 425 kts | 356° |
| 2026-05-07 20:10 | 34.58557 | -112.83316 | 27951 ft | 412 kts | 2° |
| 2026-05-07 20:10 | 34.61392 | -112.83137 | 26958 ft | 416 kts | 8° |
| 2026-05-07 20:11 | 34.64229 | -112.82833 | 26832 ft | 404 kts | 359° |
| 2026-05-07 20:11 | 34.67006 | -112.83511 | 26342 ft | 411 kts | 342° |
| 2026-05-07 20:11 | 34.69561 | -112.85116 | 25906 ft | 416 kts | 328° |
| 2026-05-07 20:11 | 34.71693 | -112.87474 | 25980 ft | 423 kts | 313° |
| 2026-05-07 20:12 | 34.73444 | -112.90399 | 26228 ft | 430 kts | 308° |
| 2026-05-07 20:12 | 34.75106 | -112.93439 | 26677 ft | 431 kts | 307° |
| 2026-05-07 20:12 | 34.76728 | -112.96477 | 27344 ft | 425 kts | 307° |
| 2026-05-07 20:12 | 34.78335 | -112.99479 | 27856 ft | 422 kts | 307° |
| 2026-05-07 20:13 | 34.79956 | -113.02474 | 27924 ft | 422 kts | 308° |
| 2026-05-07 20:13 | 34.81559 | -113.05408 | 27952 ft | 421 kts | 308° |
| 2026-05-07 20:13 | 34.83193 | -113.08375 | 27960 ft | 422 kts | 308° |
| 2026-05-07 20:13 | 34.84831 | -113.11343 | 27946 ft | 423 kts | 308° |
| 2026-05-07 20:14 | 34.86472 | -113.14315 | 27948 ft | 423 kts | 308° |
| 2026-05-07 20:14 | 34.88115 | -113.17295 | 27956 ft | 423 kts | 308° |
| 2026-05-07 20:14 | 34.89755 | -113.20273 | 27959 ft | 423 kts | 308° |
| 2026-05-07 20:14 | 34.91392 | -113.23248 | 27953 ft | 423 kts | 308° |
| 2026-05-07 20:15 | 34.93031 | -113.26241 | 27947 ft | 424 kts | 308° |
| 2026-05-07 20:15 | 34.94672 | -113.29226 | 27934 ft | 423 kts | 308° |
| 2026-05-07 20:15 | 34.96308 | -113.32204 | 27947 ft | 422 kts | 308° |
| 2026-05-07 20:15 | 34.97948 | -113.35182 | 27936 ft | 421 kts | 309° |
| 2026-05-07 20:16 | 34.99769 | -113.37941 | 27938 ft | 415 kts | 318° |
| 2026-05-07 20:16 | 35.01883 | -113.40251 | 27947 ft | 411 kts | 324° |
| 2026-05-07 20:16 | 35.04102 | -113.42453 | 27938 ft | 410 kts | 325° |
| 2026-05-07 20:16 | 35.06304 | -113.44617 | 27917 ft | 399 kts | 325° |
| 2026-05-07 20:17 | 35.08426 | -113.46716 | 27901 ft | 386 kts | 324° |
| 2026-05-07 20:17 | 35.10482 | -113.48761 | 27567 ft | 383 kts | 324° |
| 2026-05-07 20:17 | 35.12525 | -113.50806 | 27237 ft | 378 kts | 324° |
| 2026-05-07 20:17 | 35.14545 | -113.52841 | 26895 ft | 374 kts | 324° |
| 2026-05-07 20:18 | 35.16547 | -113.54856 | 26528 ft | 372 kts | 324° |
| 2026-05-07 20:18 | 35.18538 | -113.56862 | 26163 ft | 369 kts | 324° |
| 2026-05-07 20:18 | 35.20516 | -113.58856 | 25803 ft | 367 kts | 324° |
| 2026-05-07 20:18 | 35.22481 | -113.60842 | 25448 ft | 365 kts | 324° |
| 2026-05-07 20:19 | 35.24435 | -113.62818 | 25081 ft | 364 kts | 324° |
| 2026-05-07 20:19 | 35.26414 | -113.64818 | 24742 ft | 376 kts | 324° |
| 2026-05-07 20:19 | 35.28455 | -113.66878 | 24335 ft | 390 kts | 323° |
| 2026-05-07 20:19 | 35.30558 | -113.69010 | 23918 ft | 394 kts | 323° |
| 2026-05-07 20:20 | 35.32669 | -113.71153 | 23451 ft | 393 kts | 323° |
| 2026-05-07 20:20 | 35.34768 | -113.73286 | 22997 ft | 390 kts | 323° |
| 2026-05-07 20:20 | 35.36846 | -113.75400 | 22554 ft | 386 kts | 323° |
| 2026-05-07 20:20 | 35.38901 | -113.77490 | 22169 ft | 382 kts | 323° |
| 2026-05-07 20:21 | 35.40936 | -113.79562 | 21767 ft | 379 kts | 323° |
| 2026-05-07 20:21 | 35.42955 | -113.81617 | 21372 ft | 376 kts | 323° |
| 2026-05-07 20:21 | 35.44959 | -113.83659 | 20989 ft | 373 kts | 323° |
| 2026-05-07 20:21 | 35.46950 | -113.85689 | 20608 ft | 370 kts | 323° |
| 2026-05-07 20:22 | 35.48921 | -113.87700 | 20218 ft | 368 kts | 323° |
| 2026-05-07 20:22 | 35.50867 | -113.89686 | 19841 ft | 366 kts | 323° |
| 2026-05-07 20:22 | 35.52825 | -113.91685 | 19459 ft | 365 kts | 322° |
| 2026-05-07 20:22 | 35.54773 | -113.93677 | 19080 ft | 363 kts | 322° |
| 2026-05-07 20:23 | 35.56715 | -113.95664 | 18700 ft | 362 kts | 322° |
| 2026-05-07 20:23 | 35.58651 | -113.97645 | 18268 ft | 363 kts | 322° |
| 2026-05-07 20:23 | 35.60593 | -113.99633 | 17825 ft | 362 kts | 322° |
| 2026-05-07 20:23 | 35.62527 | -114.01616 | 17427 ft | 361 kts | 322° |
| 2026-05-07 20:24 | 35.64452 | -114.03591 | 17040 ft | 359 kts | 322° |
| 2026-05-07 20:24 | 35.66340 | -114.05529 | 16673 ft | 357 kts | 322° |
| 2026-05-07 20:24 | 35.68249 | -114.07489 | 16291 ft | 356 kts | 322° |
| 2026-05-07 20:24 | 35.70145 | -114.09437 | 15925 ft | 354 kts | 322° |
| 2026-05-07 20:25 | 35.72033 | -114.11378 | 15570 ft | 353 kts | 322° |
| 2026-05-07 20:25 | 35.73896 | -114.13296 | 15405 ft | 345 kts | 322° |
| 2026-05-07 20:25 | 35.75688 | -114.15229 | 15235 ft | 343 kts | 315° |
| 2026-05-07 20:25 | 35.77027 | -114.17702 | 14907 ft | 351 kts | 300° |
| 2026-05-07 20:26 | 35.78164 | -114.20382 | 14557 ft | 354 kts | 300° |
| 2026-05-07 20:26 | 35.79308 | -114.23065 | 14202 ft | 353 kts | 301° |
| 2026-05-07 20:26 | 35.80469 | -114.25740 | 13853 ft | 353 kts | 301° |
| 2026-05-07 20:26 | 35.81621 | -114.28364 | 13465 ft | 353 kts | 300° |
| 2026-05-07 20:27 | 35.82790 | -114.31016 | 13097 ft | 351 kts | 300° |
| 2026-05-07 20:27 | 35.83961 | -114.33637 | 12719 ft | 345 kts | 303° |
| 2026-05-07 20:27 | 35.85310 | -114.36055 | 12399 ft | 339 kts | 310° |
| 2026-05-07 20:27 | 35.86768 | -114.38328 | 12065 ft | 335 kts | 311° |
| 2026-05-07 20:28 | 35.88225 | -114.40554 | 11716 ft | 332 kts | 310° |
| 2026-05-07 20:28 | 35.89660 | -114.42773 | 11391 ft | 329 kts | 310° |
| 2026-05-07 20:28 | 35.91065 | -114.44984 | 11071 ft | 326 kts | 309° |
| 2026-05-07 20:28 | 35.92448 | -114.47186 | 10749 ft | 323 kts | 309° |
| 2026-05-07 20:29 | 35.93782 | -114.49324 | 10442 ft | 320 kts | 309° |
| 2026-05-07 20:29 | 35.95143 | -114.51509 | 10114 ft | 318 kts | 309° |
| 2026-05-07 20:29 | 35.96478 | -114.53662 | 9909 ft | 313 kts | 309° |
| 2026-05-07 20:29 | 35.97807 | -114.55819 | 9562 ft | 314 kts | 309° |
| 2026-05-07 20:30 | 35.99109 | -114.57935 | 9235 ft | 311 kts | 309° |
| 2026-05-07 20:30 | 36.00414 | -114.60056 | 8915 ft | 309 kts | 308° |
| 2026-05-07 20:30 | 36.01714 | -114.62144 | 8683 ft | 303 kts | 309° |
| 2026-05-07 20:30 | 36.02988 | -114.64184 | 8546 ft | 295 kts | 308° |
| 2026-05-07 20:31 | 36.04178 | -114.66211 | 8412 ft | 287 kts | 304° |
| 2026-05-07 20:31 | 36.05214 | -114.68312 | 8302 ft | 284 kts | 302° |
| 2026-05-07 20:31 | 36.06215 | -114.70403 | 8211 ft | 279 kts | 302° |
| 2026-05-07 20:31 | 36.07118 | -114.72470 | 8189 ft | 266 kts | 290° |
| 2026-05-07 20:32 | 36.07489 | -114.74674 | 7906 ft | 260 kts | 275° |
| 2026-05-07 20:32 | 36.07483 | -114.76879 | 7605 ft | 254 kts | 269° |
| 2026-05-07 20:32 | 36.07436 | -114.79044 | 7276 ft | 249 kts | 271° |
| 2026-05-07 20:32 | 36.07427 | -114.81154 | 6959 ft | 247 kts | 271° |
| 2026-05-07 20:33 | 36.07424 | -114.83261 | 6629 ft | 243 kts | 271° |
| 2026-05-07 20:33 | 36.07417 | -114.85342 | 6315 ft | 242 kts | 271° |
| 2026-05-07 20:33 | 36.07411 | -114.87421 | 5978 ft | 243 kts | 271° |
| 2026-05-07 20:33 | 36.07406 | -114.89518 | 5657 ft | 244 kts | 271° |
| 2026-05-07 20:34 | 36.07400 | -114.91613 | 5334 ft | 243 kts | 271° |
| 2026-05-07 20:34 | 36.07395 | -114.93690 | 5012 ft | 240 kts | 271° |
| 2026-05-07 20:34 | 36.07390 | -114.95701 | 4705 ft | 234 kts | 270° |
| 2026-05-07 20:34 | 36.07386 | -114.97654 | 4423 ft | 224 kts | 270° |
| 2026-05-07 20:35 | 36.07382 | -114.99494 | 4189 ft | 203 kts | 271° |
| 2026-05-07 20:35 | 36.07380 | -115.01181 | 3892 ft | 186 kts | 270° |
| 2026-05-07 20:35 | 36.07377 | -115.02722 | 3637 ft | 172 kts | 270° |
| 2026-05-07 20:35 | 36.07375 | -115.04121 | 3449 ft | 160 kts | 270° |
| 2026-05-07 20:36 | 36.07373 | -115.05481 | 3241 ft | 156 kts | 270° |
| 2026-05-07 20:36 | 36.07371 | -115.06822 | 3031 ft | 156 kts | 270° |
| 2026-05-07 20:36 | 36.07371 | -115.08148 | 2817 ft | 156 kts | 270° |
| 2026-05-07 20:36 | 36.07367 | -115.09474 | 2602 ft | 153 kts | 268° |
| 2026-05-07 20:37 | 36.07365 | -115.10787 | 2403 ft | 153 kts | 268° |
| 2026-05-07 20:37 | 36.07364 | -115.12091 | 2206 ft | 155 kts | 268° |
| 2026-05-07 20:37 | 36.07368 | -115.13340 | 2088 ft | 139 kts | 267° |
| 2026-05-07 20:37 | 36.07365 | -115.14411 | 2089 ft | 105 kts | 262° |
| 2026-05-07 20:38 | 36.07427 | -115.14955 | 2096 ft | 32 kts | 297° |
| 2026-05-07 20:38 | 36.07474 | -115.15057 | 2098 ft | 6 kts | 299° |
| 2026-05-07 20:38 | 36.07482 | -115.15072 | 2098 ft | 6 kts | 308° |
| 2026-05-07 20:38 | 36.07500 | -115.15097 | 2099 ft | 8 kts | 314° |
| 2026-05-07 20:39 | 36.07540 | -115.15136 | 2102 ft | 0 kts | 329° |
| 2026-05-07 20:40 | 36.07568 | -115.15156 | 2105 ft | 9 kts | 333° |
| 2026-05-07 20:41 | 36.07646 | -115.15200 | 2111 ft | 15 kts | 334° |
| 2026-05-07 20:41 | 36.07764 | -115.15260 | 2103 ft | 19 kts | 0° |
| 2026-05-07 20:41 | 36.07895 | -115.15198 | 2098 ft | 17 kts | 354° |
| 2026-05-07 20:41 | 36.08081 | -115.15172 | 2096 ft | 29 kts | 45° |
| 2026-05-07 20:42 | 36.08195 | -115.15006 | 2096 ft | 22 kts | 44° |
| 2026-05-07 20:42 | 36.08281 | -115.14947 | 2096 ft | 8 kts | 32° |
| 2026-05-07 20:42 | 36.08299 | -115.14913 | 2096 ft | 0 kts | 67° |
| 2026-05-07 20:42 | 36.08300 | -115.14909 | 2096 ft | 0 kts | 68° |